Time;durP1;ratioP1;P1;durP2;ratioP2;P2;SDS_P1;SDS_P2;PMS_P1;PMS_P2;Temp;Humidity;BMP_temperature;BMP_pressure;BME280_temperature;BME280_humidity;BME280_pressure;Samples;Min_cycle;Max_cycle;Signal;HPM_P1;HPM_P2
2022/09/15 00:02:17;;;;;;;14.10;8.38;;;16.50;99.90;;;;;;5060813;28;20212;-82
2022/09/15 00:05:08;;;;;;;12.93;8.82;;;16.50;99.90;;;;;;5066614;28;20226;-82
2022/09/15 00:07:56;;;;;;;12.30;9.15;;;16.50;99.90;;;;;;5063238;28;20249;-82
2022/09/15 00:10:49;;;;;;;14.35;8.93;;;16.50;99.90;;;;;;5062376;28;20227;-82
2022/09/15 00:13:39;;;;;;;13.90;8.43;;;16.50;99.90;;;;;;5067459;28;20239;-82
2022/09/15 00:16:30;;;;;;;15.95;9.13;;;16.40;99.90;;;;;;5069520;28;20234;-82
2022/09/15 00:19:19;;;;;;;13.32;8.82;;;16.40;99.90;;;;;;5059358;28;20665;-82
2022/09/15 00:22:09;;;;;;;13.85;8.52;;;16.40;99.90;;;;;;5064324;28;20269;-82
2022/09/15 00:24:57;;;;;;;13.18;8.35;;;16.40;99.90;;;;;;5068497;28;20310;-82
2022/09/15 00:27:46;;;;;;;15.50;8.52;;;16.40;99.90;;;;;;5057345;28;20671;-82
2022/09/15 00:30:34;;;;;;;14.23;8.35;;;16.40;99.90;;;;;;5064776;28;20220;-83
2022/09/15 00:33:23;;;;;;;15.07;8.50;;;16.40;99.90;;;;;;5064003;28;20232;-82
2022/09/15 00:36:13;;;;;;;16.73;8.63;;;16.40;99.90;;;;;;5065640;28;20874;-76
2022/09/15 00:39:03;;;;;;;14.57;8.32;;;16.40;99.90;;;;;;5063334;28;20645;-75
2022/09/15 00:41:52;;;;;;;13.07;8.52;;;16.40;99.90;;;;;;5064183;28;20273;-76
2022/09/15 00:44:50;;;;;;;13.55;8.40;;;16.40;99.90;;;;;;5079383;28;20600;-76
2022/09/15 00:47:40;;;;;;;13.52;8.25;;;16.40;99.90;;;;;;5071632;28;20228;-76
2022/09/15 00:50:28;;;;;;;15.38;8.55;;;16.30;99.90;;;;;;5059602;28;20591;-76
2022/09/15 00:53:19;;;;;;;15.05;8.73;;;16.40;99.90;;;;;;5070099;28;20303;-76
2022/09/15 00:56:11;;;;;;;13.68;8.95;;;16.30;99.90;;;;;;5060356;28;20276;-76
2022/09/15 00:59:03;;;;;;;18.35;8.73;;;16.30;99.90;;;;;;5059334;28;20302;-75
2022/09/15 01:01:58;;;;;;;14.07;8.23;;;16.30;99.90;;;;;;5062698;28;20265;-76
2022/09/15 01:04:47;;;;;;;17.60;9.15;;;16.30;99.90;;;;;;5059599;28;20224;-75
2022/09/15 01:07:39;;;;;;;14.88;8.52;;;16.40;99.90;;;;;;5057236;28;20308;-75
2022/09/15 01:10:29;;;;;;;13.25;8.63;;;16.30;99.90;;;;;;5064759;28;20318;-76
2022/09/15 01:13:19;;;;;;;19.45;8.75;;;16.30;99.90;;;;;;5051470;28;23122;-76
2022/09/15 01:16:16;;;;;;;15.75;10.25;;;16.20;99.90;;;;;;5063272;28;20365;-76
2022/09/15 01:19:49;;;;;;;13.75;9.13;;;16.20;99.90;;;;;;5060052;28;20224;-75
2022/09/15 01:22:50;;;;;;;12.73;9.15;;;16.30;99.90;;;;;;5066936;28;20341;-76
2022/09/15 01:25:58;;;;;;;14.60;9.20;;;16.40;99.90;;;;;;5065509;28;20227;-75
2022/09/15 01:29:19;;;;;;;15.88;9.05;;;16.20;99.90;;;;;;5049462;28;20310;-76
2022/09/15 01:35:32;;;;;;;16.52;8.90;;;16.30;99.90;;;;;;5059828;28;20239;-77
2022/09/15 01:38:37;;;;;;;20.50;10.15;;;16.30;99.90;;;;;;5064653;28;20223;-75
2022/09/15 01:41:29;;;;;;;16.17;9.73;;;16.40;99.90;;;;;;5065852;28;20259;-74
2022/09/15 01:44:24;;;;;;;14.52;9.50;;;16.20;99.90;;;;;;5063884;28;20226;-74
2022/09/15 01:47:15;;;;;;;13.27;10.00;;;16.20;99.90;;;;;;5064142;28;20219;-77
2022/09/15 01:50:09;;;;;;;15.07;9.63;;;16.20;99.90;;;;;;5067236;28;20289;-77
2022/09/15 01:53:01;;;;;;;12.52;10.18;;;16.20;99.90;;;;;;5075054;28;20224;-75
2022/09/15 01:55:53;;;;;;;12.52;9.25;;;16.20;99.90;;;;;;5065206;28;20274;-75
2022/09/15 01:58:42;;;;;;;16.20;10.73;;;16.20;99.90;;;;;;5058660;28;20235;-75
2022/09/15 02:01:37;;;;;;;18.25;10.32;;;16.10;99.90;;;;;;5068069;28;20242;-75
2022/09/15 02:04:30;;;;;;;12.18;9.60;;;16.10;99.90;;;;;;5054088;28;20579;-77
2022/09/15 02:07:30;;;;;;;18.95;10.13;;;16.20;99.90;;;;;;5061773;28;20269;-74
2022/09/15 02:10:26;;;;;;;17.50;9.95;;;16.20;99.90;;;;;;5064880;28;20208;-75
2022/09/15 02:13:20;;;;;;;15.18;10.15;;;16.20;99.90;;;;;;5061009;28;20219;-75
2022/09/15 02:16:18;;;;;;;17.23;10.48;;;16.20;99.90;;;;;;5069159;28;20238;-75
2022/09/15 02:19:16;;;;;;;17.08;11.18;;;16.20;99.90;;;;;;5065763;28;20373;-75
2022/09/15 02:22:09;;;;;;;17.20;10.70;;;16.20;99.90;;;;;;5055520;28;20851;-77
2022/09/15 02:25:05;;;;;;;13.98;10.45;;;16.20;99.90;;;;;;5061059;28;20250;-75
2022/09/15 02:27:55;;;;;;;15.85;10.68;;;16.20;99.90;;;;;;5062580;28;20342;-75
2022/09/15 02:30:46;;;;;;;19.75;11.68;;;16.10;99.90;;;;;;5046150;28;20346;-75
2022/09/15 02:33:38;;;;;;;19.45;10.95;;;16.10;99.90;;;;;;5061240;28;20367;-75
2022/09/15 02:36:30;;;;;;;17.17;11.10;;;16.10;99.90;;;;;;5068398;28;20793;-75
2022/09/15 02:39:22;;;;;;;14.73;10.80;;;16.10;99.90;;;;;;5057658;28;20220;-75
2022/09/15 02:42:11;;;;;;;16.92;11.23;;;16.10;99.90;;;;;;5067093;28;20217;-75
2022/09/15 02:45:00;;;;;;;15.15;10.30;;;16.10;99.90;;;;;;5067795;28;20656;-75
2022/09/15 02:47:49;;;;;;;15.80;12.02;;;16.10;99.90;;;;;;5069007;28;20249;-75
2022/09/15 02:50:38;;;;;;;15.65;10.65;;;16.00;99.90;;;;;;5068894;28;20224;-75
2022/09/15 02:53:28;;;;;;;17.05;10.60;;;16.10;99.90;;;;;;5072541;28;20302;-75
2022/09/15 02:56:17;;;;;;;16.50;11.40;;;16.10;99.90;;;;;;5066235;28;20236;-76
2022/09/15 02:59:05;;;;;;;14.98;11.85;;;16.10;99.90;;;;;;5048262;28;20297;-77
2022/09/15 03:01:54;;;;;;;17.17;12.57;;;16.00;99.90;;;;;;5067502;28;20293;-77
2022/09/15 03:04:43;;;;;;;18.40;11.98;;;16.00;99.90;;;;;;5060354;28;20224;-76
2022/09/15 03:07:31;;;;;;;15.55;12.13;;;16.00;99.90;;;;;;5066922;28;20216;-75
2022/09/15 03:10:22;;;;;;;14.60;11.65;;;16.00;99.90;;;;;;5049111;28;20350;-75
2022/09/15 03:13:10;;;;;;;17.65;11.38;;;16.00;99.90;;;;;;5072097;28;20680;-81
2022/09/15 03:15:59;;;;;;;16.75;11.30;;;16.00;99.90;;;;;;5073232;28;20658;-82
2022/09/15 03:18:48;;;;;;;19.52;12.45;;;16.00;99.90;;;;;;5063490;28;20284;-81
2022/09/15 03:21:36;;;;;;;14.98;11.45;;;16.00;99.90;;;;;;5065951;28;20529;-81
2022/09/15 03:24:25;;;;;;;16.58;11.63;;;16.10;99.90;;;;;;5065222;28;20813;-81
2022/09/15 03:27:14;;;;;;;17.58;12.15;;;16.00;99.90;;;;;;5068830;28;20329;-81
2022/09/15 03:30:04;;;;;;;19.73;13.35;;;16.10;99.90;;;;;;5069188;28;20232;-76
2022/09/15 03:32:52;;;;;;;14.07;11.50;;;16.00;99.90;;;;;;5063546;28;20262;-76
2022/09/15 03:35:41;;;;;;;18.73;12.00;;;16.00;99.90;;;;;;5069173;28;20373;-75
2022/09/15 03:38:29;;;;;;;19.02;11.73;;;16.00;99.90;;;;;;5068721;28;20280;-76
2022/09/15 03:41:18;;;;;;;18.40;12.38;;;16.00;99.90;;;;;;5068942;28;20332;-76
2022/09/15 03:44:07;;;;;;;19.85;12.38;;;16.00;99.90;;;;;;5072608;28;20736;-75
2022/09/15 03:46:57;;;;;;;15.73;12.07;;;15.90;99.90;;;;;;5064572;28;20235;-75
2022/09/15 03:49:45;;;;;;;18.70;12.95;;;16.00;99.90;;;;;;5067860;28;20216;-75
2022/09/15 03:52:34;;;;;;;16.00;12.02;;;15.90;99.90;;;;;;5048410;28;20240;-76
2022/09/15 03:55:22;;;;;;;19.42;13.20;;;16.00;99.90;;;;;;5065327;28;20228;-75
2022/09/15 03:58:11;;;;;;;21.60;12.93;;;16.00;99.90;;;;;;5058473;28;20646;-75
2022/09/15 04:01:00;;;;;;;20.52;13.20;;;15.90;99.90;;;;;;5063961;28;20334;-75
2022/09/15 04:03:49;;;;;;;19.42;13.40;;;15.90;99.90;;;;;;5052362;28;20228;-75
2022/09/15 04:06:39;;;;;;;21.92;13.98;;;15.80;99.90;;;;;;5069345;28;20225;-75
2022/09/15 04:09:27;;;;;;;18.20;13.02;;;15.90;99.90;;;;;;5061889;28;20227;-75
2022/09/15 04:12:16;;;;;;;21.20;13.90;;;15.90;99.90;;;;;;5067307;28;20220;-76
2022/09/15 04:15:05;;;;;;;21.30;13.38;;;15.80;99.90;;;;;;5067047;28;20357;-75
2022/09/15 04:17:55;;;;;;;22.05;13.02;;;15.90;99.90;;;;;;5065025;28;20265;-76
2022/09/15 04:20:43;;;;;;;17.17;12.57;;;15.90;99.90;;;;;;5066318;28;20323;-75
2022/09/15 04:23:33;;;;;;;18.52;13.18;;;15.80;99.90;;;;;;5063823;28;20328;-75
2022/09/15 04:26:25;;;;;;;20.65;12.90;;;15.90;99.90;;;;;;5060411;28;20227;-75
2022/09/15 04:29:16;;;;;;;19.77;12.77;;;16.00;99.90;;;;;;5063867;28;20318;-75
2022/09/15 04:32:05;;;;;;;18.30;11.52;;;15.90;99.90;;;;;;5062592;28;20208;-78
2022/09/15 04:34:54;;;;;;;19.88;12.73;;;15.90;99.90;;;;;;5056349;28;20726;-79
2022/09/15 04:37:43;;;;;;;17.58;12.68;;;15.90;99.90;;;;;;5065245;28;20617;-76
2022/09/15 04:40:32;;;;;;;16.77;11.73;;;15.90;99.90;;;;;;5061620;28;20274;-74
2022/09/15 04:43:21;;;;;;;21.48;12.43;;;15.90;99.90;;;;;;5070714;28;20710;-88
2022/09/15 04:46:10;;;;;;;17.13;11.68;;;15.90;99.90;;;;;;5061490;28;20216;-75
2022/09/15 04:48:58;;;;;;;22.55;11.85;;;15.90;99.90;;;;;;5063559;28;20368;-83
2022/09/15 04:51:48;;;;;;;16.83;11.95;;;15.90;99.90;;;;;;5063837;28;20843;-79
2022/09/15 04:54:37;;;;;;;21.83;12.25;;;15.80;99.90;;;;;;5064089;28;20313;-78
2022/09/15 04:57:25;;;;;;;21.20;11.55;;;15.80;99.90;;;;;;5065475;28;20704;-79
2022/09/15 05:00:15;;;;;;;18.58;10.73;;;15.80;99.90;;;;;;5064048;28;20277;-78
2022/09/15 05:03:03;;;;;;;19.55;11.23;;;15.80;99.90;;;;;;5064002;28;20669;-78
2022/09/15 05:05:52;;;;;;;17.30;10.75;;;15.80;99.90;;;;;;5069413;28;20226;-78
2022/09/15 05:08:42;;;;;;;18.00;10.80;;;15.80;99.90;;;;;;5065949;28;20314;-79
2022/09/15 05:11:31;;;;;;;17.85;10.60;;;15.80;99.90;;;;;;5066088;28;20228;-78
2022/09/15 05:14:20;;;;;;;19.30;10.88;;;15.80;99.90;;;;;;5066261;28;20649;-75
2022/09/15 05:17:09;;;;;;;21.77;10.15;;;15.80;99.90;;;;;;5034596;28;20221;-75
2022/09/15 05:19:58;;;;;;;15.10;9.48;;;15.90;99.90;;;;;;5056621;28;20212;-74
2022/09/15 05:22:46;;;;;;;15.93;9.98;;;15.80;99.90;;;;;;5046444;28;20362;-73
2022/09/15 05:25:37;;;;;;;20.20;9.88;;;15.90;99.90;;;;;;5059436;28;20275;-73
2022/09/15 05:28:26;;;;;;;18.08;10.40;;;15.90;99.90;;;;;;5061051;28;20228;-75
2022/09/15 05:31:17;;;;;;;18.23;9.73;;;15.90;99.90;;;;;;5044452;28;20561;-74
2022/09/15 05:34:06;;;;;;;19.33;10.23;;;15.90;99.90;;;;;;5056325;28;20375;-75
2022/09/15 05:36:54;;;;;;;22.80;9.73;;;15.90;99.90;;;;;;5061520;28;20297;-73
2022/09/15 05:39:43;;;;;;;16.80;9.20;;;15.90;99.90;;;;;;5058137;28;20834;-75
2022/09/15 05:42:33;;;;;;;15.93;9.13;;;15.90;99.90;;;;;;5059751;28;20229;-74
2022/09/15 05:45:21;;;;;;;16.15;9.35;;;15.90;99.90;;;;;;5062216;28;20238;-74
2022/09/15 05:48:10;;;;;;;17.05;9.80;;;15.90;99.90;;;;;;5045457;28;20316;-75
2022/09/15 05:50:59;;;;;;;15.60;9.85;;;16.00;99.90;;;;;;5069404;28;20257;-74
2022/09/15 05:53:48;;;;;;;16.90;9.35;;;16.00;99.90;;;;;;5068933;28;20216;-81
2022/09/15 05:56:36;;;;;;;16.75;9.30;;;16.10;99.90;;;;;;5071602;28;20708;-78
2022/09/15 05:59:27;;;;;;;16.65;9.00;;;16.10;99.90;;;;;;5066624;28;20296;-81
2022/09/15 06:02:15;;;;;;;16.15;8.93;;;16.00;99.90;;;;;;5064872;28;20220;-85
2022/09/15 06:05:05;;;;;;;18.17;8.60;;;16.10;99.90;;;;;;5070922;28;20208;-82
2022/09/15 06:07:53;;;;;;;20.40;9.40;;;16.20;99.90;;;;;;5085263;28;20284;-84
2022/09/15 06:10:42;;;;;;;15.68;8.52;;;16.20;99.90;;;;;;5065834;28;20220;-84
2022/09/15 06:13:31;;;;;;;14.27;8.63;;;16.20;99.90;;;;;;5066856;28;20224;-84
2022/09/15 06:16:22;;;;;;;16.65;8.50;;;16.20;99.90;;;;;;5069224;28;20216;-74
2022/09/15 06:19:10;;;;;;;25.48;10.60;;;16.30;99.90;;;;;;5060130;28;20583;-74
2022/09/15 06:21:59;;;;;;;17.70;8.30;;;16.30;99.90;;;;;;5060138;28;20220;-75
2022/09/15 06:24:48;;;;;;;16.30;8.93;;;16.40;99.90;;;;;;5061960;28;20291;-72
2022/09/15 06:27:36;;;;;;;20.92;9.25;;;16.40;99.90;;;;;;5060823;28;20382;-72
2022/09/15 06:30:25;;;;;;;17.80;8.35;;;16.40;99.90;;;;;;5063568;28;20314;-73
2022/09/15 06:33:15;;;;;;;16.75;8.13;;;16.40;99.90;;;;;;5059774;28;20224;-73
2022/09/15 06:36:04;;;;;;;12.25;7.53;;;16.50;99.90;;;;;;5066426;28;20311;-83
2022/09/15 06:38:53;;;;;;;16.20;7.88;;;16.60;99.90;;;;;;5068655;28;20247;-84
2022/09/15 06:41:42;;;;;;;16.50;7.70;;;16.70;99.90;;;;;;5066177;28;20218;-84
2022/09/15 06:44:49;;;;;;;14.95;7.22;;;16.70;99.90;;;;;;5060014;28;20219;-85
2022/09/15 06:47:38;;;;;;;14.50;6.82;;;16.70;99.90;;;;;;5060312;28;20228;-84
2022/09/15 06:50:28;;;;;;;12.93;6.57;;;16.80;99.90;;;;;;5063883;28;20216;-84
2022/09/15 06:53:16;;;;;;;18.48;6.80;;;16.90;99.90;;;;;;5065025;28;20279;-85
2022/09/15 06:56:07;;;;;;;15.68;7.35;;;17.00;99.90;;;;;;5059140;28;20645;-84
2022/09/15 06:58:56;;;;;;;16.75;6.28;;;17.00;99.90;;;;;;5070377;28;20320;-72
2022/09/15 07:01:45;;;;;;;16.13;6.65;;;17.00;99.90;;;;;;5066079;28;20698;-72
2022/09/15 07:04:35;;;;;;;12.98;5.90;;;17.10;99.90;;;;;;5072756;28;20364;-72
2022/09/15 07:07:25;;;;;;;11.48;6.03;;;17.10;99.90;;;;;;5064659;28;20227;-72
2022/09/15 07:10:14;;;;;;;13.43;5.88;;;17.00;99.90;;;;;;5064094;28;20704;-73
2022/09/15 07:13:03;;;;;;;11.75;5.57;;;17.00;99.90;;;;;;5074707;28;20262;-72
2022/09/15 07:15:52;;;;;;;14.32;5.80;;;17.00;99.90;;;;;;5068432;28;20307;-73
2022/09/15 07:18:41;;;;;;;10.82;5.10;;;17.10;99.90;;;;;;5068030;28;20731;-72
2022/09/15 07:21:31;;;;;;;10.02;4.95;;;17.20;99.90;;;;;;5063638;28;20236;-71
2022/09/15 07:24:20;;;;;;;9.25;4.30;;;17.10;99.90;;;;;;5066761;28;20238;-72
2022/09/15 07:27:09;;;;;;;12.80;5.85;;;17.20;99.90;;;;;;5061943;28;20231;-72
2022/09/15 07:29:58;;;;;;;14.02;5.03;;;17.30;99.90;;;;;;5045701;28;20441;-71
2022/09/15 07:32:46;;;;;;;11.02;4.10;;;17.40;99.90;;;;;;5031645;28;20689;-73
2022/09/15 07:35:40;;;;;;;11.10;4.47;;;17.40;99.90;;;;;;5052957;28;20227;-73
2022/09/15 07:38:29;;;;;;;17.23;4.95;;;17.50;99.90;;;;;;5051218;28;20220;-72
2022/09/15 07:41:21;;;;;;;12.20;4.40;;;17.60;99.90;;;;;;5048514;28;20226;-74
2022/09/15 07:44:10;;;;;;;12.07;4.05;;;17.60;99.90;;;;;;5047623;28;20746;-73
2022/09/15 07:46:59;;;;;;;10.70;4.00;;;17.60;99.90;;;;;;5043708;28;20421;-73
2022/09/15 07:49:49;;;;;;;9.75;3.90;;;17.60;99.90;;;;;;5048390;28;20220;-82
2022/09/15 07:52:37;;;;;;;13.45;4.95;;;17.60;99.90;;;;;;5052054;28;20658;-83
2022/09/15 07:55:26;;;;;;;11.63;4.85;;;17.50;99.90;;;;;;5050793;28;20290;-81
2022/09/15 07:58:15;;;;;;;11.65;4.18;;;17.50;99.90;;;;;;5050305;28;20303;-82
2022/09/15 08:01:05;;;;;;;11.30;3.53;;;17.90;99.90;;;;;;5047668;28;20259;-80
2022/09/15 08:03:55;;;;;;;9.52;3.63;;;18.50;99.90;;;;;;5045729;28;20221;-82
2022/09/15 08:06:43;;;;;;;8.63;3.65;;;19.00;99.90;;;;;;5046505;28;20754;-82
2022/09/15 08:09:32;;;;;;;11.13;3.50;;;18.90;99.90;;;;;;5049766;28;20304;-82
2022/09/15 08:12:21;;;;;;;11.68;3.53;;;18.70;99.90;;;;;;5050389;28;20297;-83
2022/09/15 08:15:11;;;;;;;9.48;3.50;;;18.80;99.90;;;;;;5049765;28;20330;-81
2022/09/15 08:17:59;;;;;;;11.73;5.03;;;18.90;99.90;;;;;;5045475;28;20225;-83
2022/09/15 08:20:48;;;;;;;8.70;4.00;;;19.10;99.90;;;;;;5043548;28;20647;-81
2022/09/15 08:23:37;;;;;;;8.15;3.70;;;19.20;99.90;;;;;;5046518;28;20221;-82
2022/09/15 08:26:27;;;;;;;10.77;3.55;;;19.10;99.90;;;;;;5043039;28;20235;-81
2022/09/15 08:29:16;;;;;;;10.88;4.05;;;19.10;99.90;;;;;;5040452;28;20228;-82
2022/09/15 08:32:06;;;;;;;7.35;3.00;;;19.80;99.90;;;;;;5062056;28;20295;-81
2022/09/15 08:34:55;;;;;;;8.73;2.80;;;20.60;99.90;;;;;;5066354;28;20219;-73
2022/09/15 08:37:43;;;;;;;5.47;2.70;;;21.20;99.90;;;;;;5068461;28;20307;-73
2022/09/15 08:40:35;;;;;;;9.43;2.83;;;21.70;99.90;;;;;;5068495;28;20313;-72
2022/09/15 08:43:27;;;;;;;7.43;2.88;;;22.00;99.90;;;;;;5065846;28;20224;-73
2022/09/15 08:46:19;;;;;;;5.30;2.60;;;22.20;99.90;;;;;;5063083;28;20683;-73
2022/09/15 08:49:17;;;;;;;7.72;3.10;;;22.80;99.90;;;;;;5070597;28;20726;-73
2022/09/15 08:52:30;;;;;;;9.10;3.13;;;22.90;99.90;;;;;;5060409;28;20223;-82
2022/09/15 08:55:33;;;;;;;5.15;2.42;;;23.00;99.90;;;;;;5064749;28;20231;-73
2022/09/15 08:58:24;;;;;;;4.95;2.30;;;23.30;99.90;;;;;;5066522;28;20360;-73
2022/09/15 09:01:25;;;;;;;6.57;2.20;;;23.50;99.90;;;;;;5057610;28;21092;-74
2022/09/15 09:04:31;;;;;;;4.40;2.05;;;23.70;99.90;;;;;;5062777;28;20277;-81
2022/09/15 09:07:35;;;;;;;8.35;2.53;;;23.60;99.90;;;;;;5067695;28;20388;-82
2022/09/15 09:10:30;;;;;;;7.25;2.13;;;23.20;99.90;;;;;;5066872;28;20288;-81
2022/09/15 09:13:28;;;;;;;7.47;2.22;;;22.30;99.90;;;;;;5065973;28;20309;-81
2022/09/15 09:16:40;;;;;;;7.00;2.47;;;21.70;99.90;;;;;;5052238;28;20215;-81
2022/09/15 09:19:51;;;;;;;6.78;2.13;;;21.10;99.90;;;;;;5062680;28;20285;-81
2022/09/15 09:22:42;;;;;;;4.47;2.25;;;20.70;99.90;;;;;;5059787;28;20228;-81
2022/09/15 09:25:30;;;;;;;7.22;2.53;;;20.50;99.90;;;;;;5056204;28;20706;-81
2022/09/15 09:28:29;;;;;;;4.78;2.50;;;20.40;99.90;;;;;;5062035;28;20227;-73
2022/09/15 09:31:20;;;;;;;4.85;2.97;;;20.30;99.90;;;;;;5062750;28;20262;-73
2022/09/15 09:34:19;;;;;;;4.05;2.20;;;20.40;99.90;;;;;;5061189;28;20298;-73
2022/09/15 09:37:11;;;;;;;5.60;2.05;;;20.40;99.90;;;;;;5064799;28;20731;-73
2022/09/15 09:40:00;;;;;;;9.52;6.50;;;20.30;99.90;;;;;;5066481;28;20208;-73
2022/09/15 09:42:49;;;;;;;8.30;4.72;;;20.20;99.90;;;;;;5060899;28;20212;-73
2022/09/15 09:45:38;;;;;;;7.75;2.33;;;20.20;99.90;;;;;;5058906;28;20239;-73
2022/09/15 09:48:28;;;;;;;5.70;2.40;;;20.20;99.90;;;;;;5062250;28;20309;-73
2022/09/15 09:51:30;;;;;;;7.10;2.33;;;20.10;99.90;;;;;;5067785;28;20310;-73
2022/09/15 09:54:21;;;;;;;3.95;2.20;;;19.90;99.90;;;;;;5062428;28;20303;-73
2022/09/15 09:57:27;;;;;;;6.75;1.90;;;20.00;99.90;;;;;;5061690;28;20659;-81
2022/09/15 10:00:32;;;;;;;4.40;2.13;;;20.00;99.90;;;;;;5066896;28;21087;-82
2022/09/15 10:03:22;;;;;;;7.57;2.42;;;20.00;99.90;;;;;;5057002;28;20303;-73
2022/09/15 10:06:13;;;;;;;7.40;2.13;;;20.10;99.90;;;;;;5063044;28;20220;-73
2022/09/15 10:09:08;;;;;;;4.80;2.10;;;20.20;99.90;;;;;;5063823;28;20216;-73
2022/09/15 10:12:00;;;;;;;5.32;1.98;;;20.30;99.90;;;;;;5079201;28;20284;-73
2022/09/15 10:14:52;;;;;;;8.00;2.03;;;20.30;99.90;;;;;;5078310;28;20284;-82
2022/09/15 10:17:44;;;;;;;7.43;2.67;;;20.20;99.90;;;;;;5060793;28;20703;-72
2022/09/15 10:20:38;;;;;;;3.90;2.25;;;20.30;99.90;;;;;;5061562;28;20311;-73
2022/09/15 10:23:28;;;;;;;7.65;2.53;;;20.30;99.90;;;;;;5065634;28;20357;-73
2022/09/15 10:26:23;;;;;;;7.20;2.67;;;20.40;99.90;;;;;;5060763;28;20212;-73
2022/09/15 10:29:15;;;;;;;5.00;2.67;;;20.70;99.90;;;;;;5061633;28;20688;-73
2022/09/15 10:32:16;;;;;;;6.07;2.42;;;20.80;99.90;;;;;;5065919;28;20300;-82
2022/09/15 10:35:12;;;;;;;6.05;2.30;;;20.80;99.90;;;;;;5064038;28;20212;-81
2022/09/15 10:38:08;;;;;;;4.32;2.10;;;20.90;99.90;;;;;;5065861;28;20259;-82
2022/09/15 10:41:08;;;;;;;3.42;1.98;;;20.80;99.90;;;;;;5061875;28;20346;-82
2022/09/15 10:44:15;;;;;;;3.92;1.90;;;20.80;99.90;;;;;;5064035;28;20303;-82
2022/09/15 10:47:15;;;;;;;6.47;2.08;;;20.80;99.90;;;;;;5055522;28;20254;-79
2022/09/15 10:50:13;;;;;;;5.30;2.53;;;20.70;99.90;;;;;;5061742;28;20219;-80
2022/09/15 10:53:17;;;;;;;4.60;2.30;;;20.60;99.90;;;;;;5066652;28;20223;-82
2022/09/15 10:56:18;;;;;;;5.15;2.10;;;20.60;99.90;;;;;;5067440;28;20722;-82
2022/09/15 10:59:34;;;;;;;6.63;2.40;;;20.60;99.90;;;;;;5065803;28;20298;-82
2022/09/15 11:02:52;;;;;;;6.53;2.72;;;20.50;99.90;;;;;;5069684;28;20713;-83
2022/09/15 11:06:01;;;;;;;8.50;4.07;;;20.60;99.90;;;;;;5070529;28;20746;-82
2022/09/15 11:09:14;;;;;;;7.47;4.00;;;20.40;99.90;;;;;;5070463;28;20712;-82
2022/09/15 11:12:17;;;;;;;8.63;4.30;;;20.40;99.90;;;;;;5070024;28;20204;-83
2022/09/15 11:15:25;;;;;;;4.20;2.80;;;20.30;99.90;;;;;;5065134;28;20574;-82
2022/09/15 11:18:29;;;;;;;9.05;2.83;;;20.10;99.90;;;;;;5062634;28;20280;-82
2022/09/15 11:21:25;;;;;;;4.85;2.35;;;20.10;99.90;;;;;;5062841;28;20358;-82
2022/09/15 11:24:28;;;;;;;9.65;2.88;;;20.30;99.90;;;;;;5047656;28;20289;-83
2022/09/15 11:27:23;;;;;;;5.13;2.45;;;20.40;99.90;;;;;;5065721;28;20219;-82
2022/09/15 11:30:17;;;;;;;5.50;2.20;;;20.50;99.90;;;;;;5068085;28;20231;-81
2022/09/15 11:33:11;;;;;;;6.68;2.17;;;20.40;99.90;;;;;;5051914;28;20714;-82
2022/09/15 11:36:06;;;;;;;11.07;2.40;;;20.40;99.90;;;;;;5062424;28;20307;-82
2022/09/15 11:38:59;;;;;;;5.95;2.30;;;20.40;99.90;;;;;;5065218;28;20795;-82
2022/09/15 11:41:55;;;;;;;5.78;2.55;;;20.60;99.90;;;;;;5057833;28;20280;-84
2022/09/15 11:44:46;;;;;;;5.45;2.28;;;20.60;99.90;;;;;;5061089;28;20224;-84
2022/09/15 11:47:40;;;;;;;8.18;2.50;;;20.60;99.90;;;;;;5047870;28;20278;-86
2022/09/15 11:50:33;;;;;;;6.88;2.40;;;20.60;99.90;;;;;;5063806;28;20259;-83
2022/09/15 11:53:30;;;;;;;5.53;2.10;;;20.80;99.90;;;;;;5064423;28;20303;-85
2022/09/15 11:56:24;;;;;;;7.47;2.42;;;20.60;99.90;;;;;;5062071;28;20224;-85
2022/09/15 11:59:21;;;;;;;5.60;2.40;;;20.60;99.90;;;;;;5078490;28;20311;-85
2022/09/15 12:02:20;;;;;;;4.80;2.35;;;20.30;99.90;;;;;;5065867;28;20295;-84
2022/09/15 12:05:13;;;;;;;5.95;2.35;;;20.20;99.90;;;;;;5043661;28;20241;-84
2022/09/15 12:08:09;;;;;;;5.47;2.60;;;20.10;99.90;;;;;;5062197;28;20306;-85
2022/09/15 12:11:02;;;;;;;5.68;2.65;;;20.20;99.90;;;;;;5044594;28;20220;-84
2022/09/15 12:13:51;;;;;;;6.88;2.42;;;20.10;99.90;;;;;;5058677;28;20337;-85
2022/09/15 12:16:40;;;;;;;4.97;2.47;;;20.20;99.90;;;;;;5074930;28;20834;-84
2022/09/15 12:19:50;;;;;;;6.85;2.65;;;20.30;99.90;;;;;;5062821;28;20223;-73
2022/09/15 12:22:46;;;;;;;6.07;2.47;;;20.30;99.90;;;;;;5062873;28;20765;-72
2022/09/15 12:25:44;;;;;;;7.60;2.70;;;20.40;99.90;;;;;;5052977;28;20366;-72
2022/09/15 12:28:41;;;;;;;6.38;2.60;;;20.20;99.90;;;;;;5053754;28;20236;-83
2022/09/15 12:31:35;;;;;;;8.50;2.63;;;20.20;99.90;;;;;;5059695;28;20227;-83
2022/09/15 12:34:35;;;;;;;7.25;2.50;;;20.20;99.90;;;;;;5059716;28;20371;-84
2022/09/15 12:37:24;;;;;;;4.82;2.17;;;20.10;99.90;;;;;;5058315;28;20307;-84
2022/09/15 12:40:28;;;;;;;7.38;2.60;;;20.00;99.90;;;;;;5059767;28;20262;-84
2022/09/15 12:43:21;;;;;;;7.18;2.33;;;20.00;99.90;;;;;;5059465;28;20748;-84
2022/09/15 12:46:17;;;;;;;8.10;2.03;;;20.00;99.90;;;;;;5060843;28;20224;-84
2022/09/15 12:49:13;;;;;;;5.93;2.63;;;19.90;99.90;;;;;;5073810;28;20227;-81
2022/09/15 12:52:06;;;;;;;7.85;2.55;;;19.80;99.90;;;;;;5061967;28;20280;-83
2022/09/15 12:54:58;;;;;;;7.53;2.65;;;19.80;99.90;;;;;;5058215;28;20228;-82
2022/09/15 12:57:53;;;;;;;5.05;2.10;;;19.80;99.90;;;;;;5058847;28;20344;-83
2022/09/15 13:00:42;;;;;;;6.88;2.50;;;19.70;99.90;;;;;;5055377;28;20224;-83
2022/09/15 13:04:24;;;;;;;5.95;2.30;;;19.80;99.90;;;;;;5054711;28;20235;-83
2022/09/15 13:07:33;;;;;;;5.80;2.50;;;19.90;99.90;;;;;;5059392;28;20354;-72
2022/09/15 13:10:34;;;;;;;7.20;2.40;;;19.90;99.90;;;;;;5059328;28;20255;-73
2022/09/15 13:13:29;;;;;;;7.88;2.40;;;19.90;99.90;;;;;;5061982;28;20308;-73
2022/09/15 13:16:28;;;;;;;7.22;2.58;;;20.00;99.90;;;;;;5066644;28;20228;-74
2022/09/15 13:19:22;;;;;;;7.07;2.40;;;19.90;99.90;;;;;;5040778;28;20513;-73
2022/09/15 13:22:22;;;;;;;5.13;2.60;;;19.80;99.90;;;;;;5062817;28;20219;-73
2022/09/15 13:25:16;;;;;;;7.90;2.40;;;19.80;99.90;;;;;;5064762;28;20303;-73
2022/09/15 13:28:05;;;;;;;7.28;2.33;;;19.70;99.90;;;;;;5059632;28;20512;-74
2022/09/15 13:31:05;;;;;;;6.72;2.70;;;19.70;99.90;;;;;;5046169;28;20240;-73
2022/09/15 13:34:36;;;;;;;5.82;2.30;;;19.70;99.90;;;;;;5039699;28;20225;-73
2022/09/15 13:38:23;;;;;;;5.22;2.45;;;19.80;99.90;;;;;;5016295;28;20220;-82
2022/09/15 13:42:00;;;;;;;6.78;2.30;;;19.90;99.90;;;;;;5044974;28;20220;-82
2022/09/15 13:45:24;;;;;;;8.85;2.72;;;19.90;99.90;;;;;;4991996;28;20698;-82
2022/09/15 13:48:29;;;;;;;5.30;2.60;;;19.90;99.90;;;;;;4994255;28;20283;-82
2022/09/15 13:51:25;;;;;;;7.05;2.72;;;19.70;99.90;;;;;;5034080;28;20225;-82
2022/09/15 13:54:18;;;;;;;5.85;2.40;;;19.60;99.90;;;;;;5039300;28;20248;-84
2022/09/15 13:57:08;;;;;;;6.15;2.72;;;19.70;99.90;;;;;;5034941;28;21023;-82
2022/09/15 13:59:56;;;;;;;4.50;2.30;;;19.70;99.90;;;;;;5042889;28;20235;-79
2022/09/15 14:02:49;;;;;;;8.30;2.70;;;19.70;99.90;;;;;;5035655;28;20263;-80
2022/09/15 14:05:39;;;;;;;7.70;2.40;;;19.80;99.90;;;;;;5040808;28;20233;-81
2022/09/15 14:08:31;;;;;;;6.13;2.33;;;19.90;99.90;;;;;;5026859;28;20298;-80
2022/09/15 14:11:26;;;;;;;5.40;2.40;;;19.90;99.90;;;;;;5050687;28;20655;-81
2022/09/15 14:14:34;;;;;;;8.48;3.13;;;19.70;99.90;;;;;;5038881;28;20221;-80
2022/09/15 14:17:24;;;;;;;9.00;2.42;;;19.70;99.90;;;;;;5045120;28;20760;-80
2022/09/15 14:20:22;;;;;;;7.07;2.25;;;19.80;99.90;;;;;;5044152;28;20752;-80
2022/09/15 14:23:16;;;;;;;4.30;2.60;;;19.70;99.90;;;;;;5046676;28;20281;-80
2022/09/15 14:26:04;;;;;;;6.15;2.50;;;19.70;99.90;;;;;;5022447;28;20304;-78
2022/09/15 14:28:57;;;;;;;5.95;2.35;;;19.50;99.90;;;;;;5048578;28;20220;-80
2022/09/15 14:31:47;;;;;;;6.88;2.70;;;19.60;99.90;;;;;;5065009;28;20231;-81
2022/09/15 14:34:36;;;;;;;6.35;2.63;;;19.60;99.90;;;;;;5063223;28;20243;-81
2022/09/15 14:37:27;;;;;;;4.53;2.35;;;19.60;99.90;;;;;;5058721;28;20768;-81
2022/09/15 14:40:24;;;;;;;7.82;2.60;;;19.60;99.90;;;;;;5060122;28;20711;-82
2022/09/15 14:43:25;;;;;;;11.07;2.80;;;19.60;99.90;;;;;;5062454;28;20315;-82
2022/09/15 14:46:18;;;;;;;6.07;2.85;;;19.60;99.90;;;;;;5068603;28;20223;-82
2022/09/15 14:49:09;;;;;;;6.57;2.65;;;19.60;99.90;;;;;;5059940;28;20731;-82
2022/09/15 14:52:00;;;;;;;6.95;2.58;;;19.60;99.90;;;;;;5061924;28;20653;-82
2022/09/15 14:54:50;;;;;;;6.63;2.35;;;19.70;99.90;;;;;;5065672;28;20227;-82
2022/09/15 14:57:41;;;;;;;6.88;2.40;;;19.50;99.90;;;;;;5075861;28;20270;-82